createdAt,value
2023-09-08T00:01:59.414Z,102011.97
2023-09-08T00:04:31.694Z,102006.66
2023-09-08T00:07:04.102Z,102008.34
2023-09-08T00:09:36.285Z,102003.75
2023-09-08T00:12:08.671Z,101998.44
2023-09-08T00:14:40.909Z,102002.94
2023-09-08T00:17:13.164Z,102001.97
2023-09-08T00:19:45.678Z,101998.38
2023-09-08T00:22:17.777Z,101995.69
2023-09-08T00:24:49.996Z,102001.88
2023-09-08T00:27:22.206Z,101987.66
2023-09-08T00:29:54.295Z,101988.41
2023-09-08T00:32:26.593Z,101992.00
2023-09-08T00:34:58.916Z,101988.47
2023-09-08T00:37:31.060Z,101992.00
2023-09-08T00:40:03.337Z,101996.41
2023-09-08T00:42:35.439Z,101997.38
2023-09-08T00:45:08.006Z,101992.06
2023-09-08T00:47:40.254Z,101999.25
2023-09-08T00:50:13.426Z,101988.72
2023-09-08T00:52:45.620Z,101996.78
2023-09-08T00:55:18.933Z,101988.81
2023-09-08T00:57:51.422Z,101993.47
2023-09-08T01:00:23.608Z,101991.63
2023-09-08T01:02:55.879Z,101991.72
2023-09-08T01:05:28.307Z,101990.81
2023-09-08T01:08:01.898Z,101993.56
2023-09-08T01:10:34.163Z,101992.75
2023-09-08T01:13:06.250Z,101991.00
2023-09-08T01:15:38.471Z,101986.59
2023-09-08T01:18:11.727Z,101989.38
2023-09-08T01:21:38.281Z,101984.25
2023-09-08T01:25:08.358Z,101986.16
2023-09-08T01:27:47.237Z,101979.25
2023-09-08T01:30:20.072Z,101983.84
2023-09-08T01:32:52.704Z,101982.22
2023-09-08T01:35:26.207Z,101977.06
2023-09-08T01:37:58.539Z,101972.03
2023-09-08T01:40:30.639Z,101974.81
2023-09-08T01:43:02.825Z,101982.09
2023-09-08T01:45:34.980Z,101974.28
2023-09-08T01:48:07.580Z,101975.28
2023-09-08T01:50:39.666Z,101970.94
2023-09-08T01:53:11.930Z,101970.03
2023-09-08T01:55:44.022Z,101972.72
2023-09-08T01:58:16.329Z,101968.31
2023-09-08T02:00:55.080Z,101967.41
2023-09-08T02:03:27.303Z,101963.97
2023-09-08T02:05:59.511Z,101960.50
2023-09-08T02:08:31.653Z,101957.88
2023-09-08T02:11:03.714Z,101956.31
2023-09-08T02:13:35.960Z,101961.72
2023-09-08T02:16:08.416Z,101951.13
2023-09-08T02:18:40.601Z,101957.47
2023-09-08T02:21:13.379Z,101955.69
2023-09-08T02:23:45.547Z,101951.25
2023-09-08T02:26:17.618Z,101962.84
2023-09-08T02:28:49.764Z,101954.03
2023-09-08T02:31:21.902Z,101963.69
2023-09-08T02:33:54.303Z,101962.75
2023-09-08T02:36:26.793Z,101970.72
2023-09-08T02:38:59.035Z,101962.78
2023-09-08T02:41:31.147Z,101967.22
2023-09-08T02:44:03.973Z,101963.69
2023-09-08T02:46:36.229Z,101966.34
2023-09-08T02:49:08.459Z,101962.78
2023-09-08T02:51:40.686Z,101965.53
2023-09-08T02:54:13.057Z,101963.78
2023-09-08T02:56:45.183Z,101961.13
2023-09-08T02:59:18.116Z,101959.44
2023-09-08T03:01:50.379Z,101962.13
2023-09-08T03:04:23.051Z,101960.41
2023-09-08T03:06:55.166Z,101952.47
2023-09-08T03:09:27.429Z,101953.44
2023-09-08T03:12:00.130Z,101943.78
2023-09-08T03:14:32.303Z,101951.78
2023-09-08T03:17:04.786Z,101950.91
2023-09-08T03:19:36.985Z,101943.03
2023-09-08T03:22:09.101Z,101944.81
2023-09-08T03:24:41.190Z,101937.81
2023-09-08T03:27:13.366Z,101936.94
2023-09-08T03:29:45.568Z,101937.81
2023-09-08T03:32:17.805Z,101936.09
2023-09-08T03:34:51.843Z,101929.78
2023-09-08T03:37:23.964Z,101933.44
2023-09-08T03:39:56.083Z,101933.53
2023-09-08T03:42:28.326Z,101939.63
2023-09-08T03:45:00.484Z,101939.75
2023-09-08T03:47:32.761Z,101931.88
2023-09-08T03:50:05.392Z,101932.72
2023-09-08T03:52:37.498Z,101932.91
2023-09-08T03:55:09.737Z,101931.16
2023-09-08T03:57:41.829Z,101935.66
2023-09-08T04:00:20.570Z,101927.72
2023-09-08T04:02:52.990Z,101927.81
2023-09-08T04:05:25.240Z,101925.41
2023-09-08T04:07:57.425Z,101925.34
2023-09-08T04:10:29.676Z,101929.81
2023-09-08T04:13:01.896Z,101933.34
2023-09-08T04:15:36.632Z,101924.59
2023-09-08T04:18:09.383Z,101924.72
2023-09-08T04:20:41.547Z,101926.50
2023-09-08T04:23:13.629Z,101923.88
2023-09-08T04:25:45.692Z,101921.44
2023-09-08T04:28:17.987Z,101920.53
2023-09-08T04:30:50.259Z,101917.84
2023-09-08T04:33:22.558Z,101914.47
2023-09-08T04:35:54.803Z,101910.03
2023-09-08T04:38:26.991Z,101914.50
2023-09-08T04:40:59.253Z,101907.47
2023-09-08T04:43:31.300Z,101899.59
2023-09-08T04:46:04.950Z,101902.19
2023-09-08T04:48:39.284Z,101908.41
2023-09-08T04:51:12.837Z,101906.69
2023-09-08T04:53:44.978Z,101905.03
2023-09-08T04:56:17.202Z,101904.13
2023-09-08T04:58:49.336Z,101905.03
2023-09-08T05:01:21.833Z,101903.25
2023-09-08T05:03:54.259Z,101906.84
2023-09-08T05:06:26.841Z,101901.56
2023-09-08T05:09:01.227Z,101904.22
2023-09-08T05:11:33.446Z,101903.34
2023-09-08T05:14:06.187Z,101906.84
2023-09-08T05:16:40.723Z,101907.81
2023-09-08T05:19:14.421Z,101910.44
2023-09-08T05:21:46.706Z,101915.69
2023-09-08T05:24:18.842Z,101920.13
2023-09-08T05:26:50.958Z,101914.81
2023-09-08T05:29:23.039Z,101906.84
2023-09-08T05:31:55.165Z,101906.84
2023-09-08T05:34:27.428Z,101909.41
2023-09-08T05:36:59.674Z,101906.84
2023-09-08T05:39:31.938Z,101903.34
2023-09-08T05:42:04.360Z,101904.22
2023-09-08T05:44:36.643Z,101903.25
2023-09-08T05:47:08.935Z,101903.97
2023-09-08T05:49:41.107Z,101899.53
2023-09-08T05:52:13.390Z,101901.22
2023-09-08T05:54:45.599Z,101908.19
2023-09-08T05:57:17.685Z,101904.69
2023-09-08T05:59:49.840Z,101906.44
2023-09-08T06:02:21.992Z,101907.97
2023-09-08T06:04:54.082Z,101903.53
2023-09-08T06:07:26.259Z,101906.91
2023-09-08T06:09:58.375Z,101904.13
2023-09-08T06:12:30.549Z,101904.97
2023-09-08T06:15:04.656Z,101918.19
2023-09-08T06:17:36.807Z,101912.13
2023-09-08T06:20:10.052Z,101915.63
2023-09-08T06:22:42.299Z,101914.63
2023-09-08T06:25:14.527Z,101909.25
2023-09-08T06:27:46.751Z,101904.72
2023-09-08T06:30:19.901Z,101904.69
2023-09-08T06:32:52.212Z,101903.66
2023-09-08T06:35:24.373Z,101900.09
2023-09-08T06:37:56.640Z,101906.09
2023-09-08T06:40:31.754Z,101911.44
2023-09-08T06:43:04.241Z,101912.19
2023-09-08T06:45:41.148Z,101922.50
2023-09-08T06:48:13.391Z,101918.75
2023-09-08T06:50:45.644Z,101915.19
2023-09-08T06:53:17.859Z,101913.19
2023-09-08T06:55:50.376Z,101914.66
2023-09-08T06:58:22.635Z,101916.16
2023-09-08T07:00:55.953Z,101915.13
2023-09-08T07:03:38.691Z,101916.53
2023-09-08T07:06:11.177Z,101913.63
2023-09-08T07:08:43.417Z,101912.44
2023-09-08T07:11:17.646Z,101906.84
2023-09-08T07:13:50.154Z,101918.59
2023-09-08T07:16:22.319Z,101923.06
2023-09-08T07:18:54.491Z,101919.06
2023-09-08T07:21:26.634Z,101922.91
2023-09-08T07:23:59.582Z,101926.56
2023-09-08T07:26:31.703Z,101928.38
2023-09-08T07:29:03.815Z,101929.06
2023-09-08T07:31:36.571Z,101924.91
2023-09-08T07:34:08.784Z,101920.66
2023-09-08T07:36:41.305Z,101913.50
2023-09-08T07:39:13.418Z,101916.84
2023-09-08T07:41:45.548Z,101917.00
2023-09-08T07:44:19.061Z,101916.91
2023-09-08T07:46:52.693Z,101916.31
2023-09-08T07:49:25.372Z,101912.31
2023-09-08T07:51:57.526Z,101915.50
2023-09-08T07:54:29.604Z,101914.72
2023-09-08T07:57:01.725Z,101915.56
2023-09-08T07:59:35.386Z,101911.31
2023-09-08T08:02:09.740Z,101908.03
2023-09-08T08:04:44.803Z,101912.03
2023-09-08T08:07:16.997Z,101916.63
2023-09-08T08:09:49.135Z,101909.97
2023-09-08T08:12:21.327Z,101906.88
2023-09-08T08:14:53.533Z,101906.13
2023-09-08T08:17:27.704Z,101909.72
2023-09-08T08:20:00.460Z,101908.44
2023-09-08T08:22:32.583Z,101899.34
2023-09-08T08:25:05.723Z,101900.75
2023-09-08T08:27:37.941Z,101904.81
2023-09-08T08:30:12.815Z,101903.41
2023-09-08T08:32:45.101Z,101897.81
2023-09-08T08:35:17.340Z,101906.03
2023-09-08T08:37:49.748Z,101901.66
2023-09-08T08:40:22.019Z,101909.44
2023-09-08T08:43:00.660Z,101894.31
2023-09-08T08:45:38.552Z,101897.09
2023-09-08T08:48:13.286Z,101900.16
2023-09-08T08:50:45.688Z,101898.16
2023-09-08T08:53:22.094Z,101906.25
2023-09-08T08:55:59.426Z,101895.81
2023-09-08T08:58:31.732Z,101894.53
2023-09-08T09:01:04.806Z,101899.28
2023-09-08T09:03:39.434Z,101904.88
2023-09-08T09:06:12.257Z,101899.66
2023-09-08T09:08:45.728Z,101896.84
2023-09-08T09:11:18.051Z,101898.34
2023-09-08T09:13:50.320Z,101897.94
2023-09-08T09:16:22.488Z,101891.81
2023-09-08T09:19:00.776Z,101889.41
2023-09-08T09:21:52.010Z,101887.47
2023-09-08T09:24:35.032Z,101879.13
2023-09-08T09:27:08.129Z,101889.75
2023-09-08T09:29:51.485Z,101872.53
2023-09-08T09:32:28.108Z,101877.78
2023-09-08T09:35:02.752Z,101879.44
2023-09-08T09:37:37.239Z,101872.53
2023-09-08T09:40:12.062Z,101875.97
2023-09-08T09:42:44.463Z,101874.06
2023-09-08T09:45:17.331Z,101873.41
2023-09-08T09:47:49.673Z,101884.56
2023-09-08T09:50:34.468Z,101876.75
2023-09-08T09:53:18.206Z,101874.56
2023-09-08T09:55:50.971Z,101872.84
2023-09-08T09:58:24.580Z,101870.47
2023-09-08T10:00:56.915Z,101865.25
2023-09-08T10:03:32.276Z,101866.50
2023-09-08T10:06:04.903Z,101864.66
2023-09-08T10:08:39.819Z,101864.28
2023-09-08T10:11:17.482Z,101866.84
2023-09-08T10:13:52.861Z,101863.53
2023-09-08T10:16:32.176Z,101858.19
2023-09-08T10:19:10.678Z,101853.94
2023-09-08T10:21:46.387Z,101849.50
2023-09-08T10:24:36.659Z,101848.31
2023-09-08T10:27:13.428Z,101846.84
2023-09-08T10:29:46.333Z,101843.66
2023-09-08T10:32:20.891Z,101840.66
2023-09-08T10:34:55.364Z,101840.94
2023-09-08T10:37:30.965Z,101840.63
2023-09-08T10:40:35.784Z,101841.81
2023-09-08T10:43:12.286Z,101841.63
2023-09-08T10:45:44.651Z,101836.50
2023-09-08T10:48:17.192Z,101829.72
2023-09-08T10:50:49.391Z,101834.22
2023-09-08T10:53:22.485Z,101828.34
2023-09-08T10:58:40.231Z,101841.09
2023-09-08T11:01:20.391Z,101827.09
2023-09-08T11:03:52.987Z,101824.81
2023-09-08T11:06:25.297Z,101833.34
2023-09-08T11:08:57.870Z,101832.69
2023-09-08T11:11:35.273Z,101840.28
2023-09-08T11:14:07.464Z,101831.59
2023-09-08T11:16:39.642Z,101828.59
2023-09-08T11:19:11.996Z,101830.44
2023-09-08T11:21:45.514Z,101821.69
2023-09-08T11:24:19.671Z,101836.38
2023-09-08T11:26:52.814Z,101841.31
2023-09-08T11:29:25.072Z,101836.66
2023-09-08T11:31:57.289Z,101833.66
2023-09-08T11:34:30.355Z,101836.06
2023-09-08T11:37:10.708Z,101832.47
2023-09-08T11:39:47.264Z,101833.97
2023-09-08T11:42:19.998Z,101838.66
2023-09-08T11:44:52.292Z,101831.75
2023-09-08T11:47:24.430Z,101829.38
2023-09-08T11:49:56.501Z,101825.22
2023-09-08T11:52:29.311Z,101824.88
2023-09-08T11:55:06.986Z,101820.81
2023-09-08T11:57:41.563Z,101824.22
2023-09-08T12:00:18.023Z,101819.19
2023-09-08T12:02:51.068Z,101812.28
2023-09-08T12:05:27.991Z,101818.22
2023-09-08T12:08:00.452Z,101816.59
2023-09-08T12:10:40.869Z,101820.75
2023-09-08T12:13:17.247Z,101813.19
2023-09-08T12:15:49.715Z,101808.53
2023-09-08T12:18:40.687Z,101804.25
2023-09-08T12:21:13.035Z,101806.91
2023-09-08T12:23:50.578Z,101798.31
2023-09-08T12:26:25.000Z,101793.84
2023-09-08T12:28:57.308Z,101792.38
2023-09-08T12:31:30.026Z,101796.84
2023-09-08T12:34:02.978Z,101788.44
2023-09-08T12:36:37.703Z,101797.78
2023-09-08T12:39:09.881Z,101786.22
2023-09-08T12:41:42.040Z,101789.38
2023-09-08T12:44:14.220Z,101788.78
2023-09-08T12:46:46.394Z,101787.47
2023-09-08T12:49:18.699Z,101783.38
2023-09-08T12:51:50.789Z,101784.91
2023-09-08T12:54:23.153Z,101776.16
2023-09-08T12:56:55.297Z,101765.72
2023-09-08T12:59:27.561Z,101764.00
2023-09-08T13:01:59.686Z,101764.84
2023-09-08T13:04:32.156Z,101759.25
2023-09-08T13:07:04.466Z,101754.88
2023-09-08T13:09:36.677Z,101759.19
2023-09-08T13:12:10.274Z,101761.50
2023-09-08T13:14:42.807Z,101755.19
2023-09-08T13:17:20.176Z,101762.19
2023-09-08T13:19:52.370Z,101759.53
2023-09-08T13:22:24.581Z,101751.16
2023-09-08T13:24:56.705Z,101749.59
2023-09-08T13:27:28.885Z,101747.16
2023-09-08T13:30:15.661Z,101741.09
2023-09-08T13:32:47.886Z,101741.25
2023-09-08T13:35:20.248Z,101742.81
2023-09-08T13:37:52.424Z,101742.13
2023-09-08T13:40:24.698Z,101733.66
2023-09-08T13:42:56.895Z,101722.56
2023-09-08T13:45:29.132Z,101721.25
2023-09-08T13:48:01.464Z,101725.63
2023-09-08T13:50:34.320Z,101711.53
2023-09-08T13:53:09.487Z,101718.63
2023-09-08T13:55:43.807Z,101712.25
2023-09-08T13:58:20.045Z,101706.16
2023-09-08T14:00:53.724Z,101711.41
2023-09-08T14:03:30.138Z,101717.28
2023-09-08T14:06:07.413Z,101722.69
2023-09-08T14:11:42.496Z,101717.53
2023-09-08T14:14:16.232Z,101715.06
2023-09-08T14:16:48.582Z,101715.19
2023-09-08T14:19:20.750Z,101714.56
2023-09-08T14:21:52.969Z,101713.09
2023-09-08T14:24:25.216Z,101716.44
2023-09-08T14:26:57.384Z,101706.75
2023-09-08T14:29:29.495Z,101708.16
2023-09-08T14:32:01.830Z,101706.66
2023-09-08T14:34:34.092Z,101706.00
2023-09-08T14:37:07.938Z,101696.19
2023-09-08T14:39:41.804Z,101702.75
2023-09-08T14:42:15.292Z,101696.72
2023-09-08T14:44:47.605Z,101694.88
2023-09-08T14:47:20.294Z,101695.34
2023-09-08T14:49:52.399Z,101693.75
2023-09-08T14:52:25.103Z,101685.91
2023-09-08T14:54:57.196Z,101685.03
2023-09-08T14:57:29.376Z,101690.97
2023-09-08T15:00:01.548Z,101689.88
2023-09-08T15:02:33.793Z,101688.28
2023-09-08T15:05:06.539Z,101690.72
2023-09-08T15:07:38.799Z,101694.78
2023-09-08T15:10:11.131Z,101694.88
2023-09-08T15:12:43.342Z,101692.31
2023-09-08T15:15:15.799Z,101688.75
2023-09-08T15:17:47.982Z,101692.19
2023-09-08T15:20:23.084Z,101681.38
2023-09-08T15:22:55.760Z,101683.47
2023-09-08T15:25:27.959Z,101681.97
2023-09-08T15:28:00.083Z,101676.56
2023-09-08T15:30:32.384Z,101676.56
2023-09-08T15:33:08.177Z,101675.22
2023-09-08T15:35:40.759Z,101678.53
2023-09-08T15:38:14.508Z,101666.63
2023-09-08T15:41:08.725Z,101676.06
2023-09-08T15:43:42.184Z,101671.03
2023-09-08T15:46:14.678Z,101662.53
2023-09-08T15:48:46.910Z,101668.44
2023-09-08T15:51:19.089Z,101669.44
2023-09-08T15:53:51.660Z,101667.56
2023-09-08T15:56:23.785Z,101674.53
2023-09-08T15:58:55.926Z,101673.28
2023-09-08T16:01:28.208Z,101679.16
2023-09-08T16:04:00.742Z,101679.97
2023-09-08T16:06:33.636Z,101676.06
2023-09-08T16:09:07.326Z,101675.44
2023-09-08T16:11:39.420Z,101670.03
2023-09-08T16:14:11.552Z,101667.69
2023-09-08T16:16:45.167Z,101664.34
2023-09-08T16:19:18.828Z,101665.50
2023-09-08T16:21:51.037Z,101661.03
2023-09-08T16:24:23.460Z,101662.81
2023-09-08T16:26:58.180Z,101666.09
2023-09-08T16:29:31.989Z,101665.22
2023-09-08T16:32:04.528Z,101664.81
2023-09-08T16:34:36.751Z,101673.88
2023-09-08T16:37:09.969Z,101667.00
2023-09-08T16:39:42.344Z,101663.44
2023-09-08T16:42:14.803Z,101667.31
2023-09-08T16:44:47.124Z,101661.31
2023-09-08T16:47:21.246Z,101662.94
2023-09-08T16:49:54.287Z,101662.53
2023-09-08T16:52:26.687Z,101660.13
2023-09-08T16:54:58.854Z,101664.75
2023-09-08T16:57:31.027Z,101666.81
2023-09-08T17:00:04.794Z,101668.31
2023-09-08T17:02:38.152Z,101663.03
2023-09-08T17:05:11.455Z,101667.34
2023-09-08T17:07:44.631Z,101659.97
2023-09-08T17:10:16.921Z,101666.09
2023-09-08T17:12:49.083Z,101668.34
2023-09-08T17:15:21.236Z,101664.16
2023-09-08T17:17:53.629Z,101671.88
2023-09-08T17:20:27.098Z,101672.69
2023-09-08T17:22:59.368Z,101678.13
2023-09-08T17:25:31.561Z,101677.00
2023-09-08T17:28:03.904Z,101672.03
2023-09-08T17:30:36.074Z,101675.03
2023-09-08T17:33:08.234Z,101672.72
2023-09-08T17:35:40.466Z,101674.19
2023-09-08T17:38:12.662Z,101673.03
2023-09-08T17:40:44.909Z,101672.69
2023-09-08T17:43:17.059Z,101673.19
2023-09-08T17:45:49.323Z,101669.31
2023-09-08T17:48:21.500Z,101670.78
2023-09-08T17:50:53.830Z,101672.59
2023-09-08T17:53:25.912Z,101670.56
2023-09-08T17:55:58.032Z,101669.69
2023-09-08T17:58:30.193Z,101671.22
2023-09-08T18:01:02.463Z,101670.03
2023-09-08T18:03:34.938Z,101678.72
2023-09-08T18:06:10.846Z,101671.16
2023-09-08T18:08:43.441Z,101674.34
2023-09-08T18:11:15.786Z,101676.63
2023-09-08T18:13:49.652Z,101675.44
2023-09-08T18:16:22.030Z,101681.16
2023-09-08T18:18:54.275Z,101688.75
2023-09-08T18:21:26.419Z,101685.66
2023-09-08T18:23:58.569Z,101682.72
2023-09-08T18:26:30.881Z,101681.50
2023-09-08T18:29:03.171Z,101686.59
2023-09-08T18:31:35.406Z,101683.50
2023-09-08T18:34:10.675Z,101690.13
2023-09-08T18:36:42.866Z,101688.81
2023-09-08T18:39:14.979Z,101692.00
2023-09-08T18:41:47.098Z,101690.59
2023-09-08T18:44:19.292Z,101685.56
2023-09-08T18:46:51.685Z,101695.97
2023-09-08T18:49:23.888Z,101705.19
2023-09-08T18:51:56.159Z,101705.59
2023-09-08T18:54:30.916Z,101705.06
2023-09-08T18:57:03.524Z,101708.91
2023-09-08T18:59:35.742Z,101711.09
2023-09-08T19:02:08.043Z,101704.41
2023-09-08T19:04:40.218Z,101708.28
2023-09-08T19:07:12.702Z,101701.59
2023-09-08T19:09:44.813Z,101707.25
2023-09-08T19:12:17.013Z,101709.34
2023-09-08T19:14:49.296Z,101705.25
2023-09-08T19:17:21.624Z,101709.03
2023-09-08T19:19:53.809Z,101720.03
2023-09-08T19:22:26.002Z,101707.75
2023-09-08T19:24:58.267Z,101709.81
2023-09-08T19:27:31.075Z,101703.91
2023-09-08T19:30:07.070Z,101706.03
2023-09-08T19:32:40.376Z,101706.25
2023-09-08T19:35:12.726Z,101707.34
2023-09-08T19:37:44.914Z,101702.22
2023-09-08T19:40:17.273Z,101706.91
2023-09-08T19:42:49.448Z,101701.72
2023-09-08T19:45:21.547Z,101702.81
2023-09-08T19:47:54.041Z,101702.06
2023-09-08T19:50:26.351Z,101702.44
2023-09-08T19:52:58.564Z,101708.84
2023-09-08T19:55:32.040Z,101706.41
2023-09-08T19:58:04.592Z,101708.13
2023-09-08T20:00:36.688Z,101710.03
2023-09-08T20:03:08.918Z,101705.00
2023-09-08T20:05:45.063Z,101713.16
2023-09-08T20:08:17.200Z,101708.97
2023-09-08T20:10:54.394Z,101702.97
2023-09-08T20:13:26.659Z,101714.72
2023-09-08T20:16:04.519Z,101704.13
2023-09-08T20:18:37.414Z,101700.72
2023-09-08T20:21:10.942Z,101705.34
2023-09-08T20:23:43.210Z,101703.59
2023-09-08T20:26:15.557Z,101700.22
2023-09-08T20:28:48.378Z,101697.69
2023-09-08T20:31:21.008Z,101694.34
2023-09-08T20:33:53.328Z,101691.75
2023-09-08T20:36:26.050Z,101697.09
2023-09-08T20:38:58.173Z,101690.88
2023-09-08T20:41:30.373Z,101687.28
2023-09-08T20:44:02.709Z,101687.28
2023-09-08T20:46:34.947Z,101694.06
2023-09-08T20:49:07.203Z,101694.53
2023-09-08T20:51:39.399Z,101688.97
2023-09-08T20:54:11.656Z,101690.41
2023-09-08T20:56:43.789Z,101685.72
2023-09-08T20:59:16.177Z,101685.50
2023-09-08T21:01:48.321Z,101684.66
2023-09-08T21:04:20.993Z,101679.16
2023-09-08T21:06:53.311Z,101679.03
2023-09-08T21:09:25.486Z,101682.78
2023-09-08T21:11:57.683Z,101684.59
2023-09-08T21:14:29.992Z,101683.84
2023-09-08T21:17:02.410Z,101684.94
2023-09-08T21:19:34.598Z,101675.41
2023-09-08T21:22:06.920Z,101679.88
2023-09-08T21:24:39.162Z,101674.63
2023-09-08T21:27:11.447Z,101681.84
2023-09-08T21:29:43.902Z,101681.03
2023-09-08T21:32:16.018Z,101682.03
2023-09-08T21:34:48.111Z,101684.06
2023-09-08T21:37:23.378Z,101675.19
2023-09-08T21:39:56.334Z,101677.06
2023-09-08T21:42:28.536Z,101680.72
2023-09-08T21:45:00.773Z,101678.06
2023-09-08T21:47:34.221Z,101676.34
2023-09-08T21:50:10.055Z,101675.53
2023-09-08T21:52:42.495Z,101678.28
2023-09-08T21:55:17.920Z,101676.69
2023-09-08T21:57:50.107Z,101679.50
2023-09-08T22:00:23.594Z,101676.00
2023-09-08T22:02:56.004Z,101673.53
2023-09-08T22:05:28.780Z,101675.53
2023-09-08T22:08:00.974Z,101677.34
2023-09-08T22:10:33.113Z,101667.72
2023-09-08T22:13:05.430Z,101665.13
2023-09-08T22:15:37.855Z,101675.13
2023-09-08T22:18:10.235Z,101665.47
2023-09-08T22:20:42.626Z,101668.31
2023-09-08T22:23:14.868Z,101676.72
2023-09-08T22:25:47.086Z,101672.25
2023-09-08T22:28:19.218Z,101678.53
2023-09-08T22:30:51.316Z,101679.47
2023-09-08T22:33:23.659Z,101678.72
2023-09-08T22:35:55.947Z,101685.13
2023-09-08T22:38:28.344Z,101680.00
2023-09-08T22:41:01.569Z,101678.47
2023-09-08T22:43:33.801Z,101675.19
2023-09-08T22:46:08.280Z,101676.31
2023-09-08T22:48:40.570Z,101677.47
2023-09-08T22:51:14.715Z,101682.78
2023-09-08T22:53:46.856Z,101679.25
2023-09-08T22:56:19.288Z,101681.16
2023-09-08T22:58:51.519Z,101679.63
2023-09-08T23:01:23.691Z,101682.59
2023-09-08T23:03:55.929Z,101678.56
2023-09-08T23:06:28.217Z,101680.63
2023-09-08T23:09:00.340Z,101677.41
2023-09-08T23:11:35.093Z,101678.50
2023-09-08T23:14:07.263Z,101679.69
2023-09-08T23:16:39.874Z,101678.88
2023-09-08T23:19:12.307Z,101680.09
2023-09-08T23:21:44.538Z,101673.06
2023-09-08T23:24:16.709Z,101673.19
2023-09-08T23:26:49.222Z,101675.84
2023-09-08T23:29:21.345Z,101680.41
2023-09-08T23:31:53.535Z,101681.31
2023-09-08T23:34:25.736Z,101676.06
2023-09-08T23:37:00.868Z,101677.06
2023-09-08T23:39:33.424Z,101678.91
2023-09-08T23:42:05.750Z,101683.47
2023-09-08T23:44:37.878Z,101679.13
2023-09-08T23:47:10.182Z,101669.47
2023-09-08T23:49:42.313Z,101666.00
2023-09-08T23:52:14.416Z,101669.66
2023-09-08T23:54:46.565Z,101664.44
2023-09-08T23:57:18.900Z,101665.16
2023-09-08T23:59:51.168Z,101665.22
